Aqua, Pennsylvania
Current Conditions -  °F | °C
As of 12:53 PM on Thursday 18 Dec 2014 (Local Time) from KHGR Reporting Station
Overcast Overcast  
Wind Chill: 27°   Ceiling: 3300
Heat Index: 36°   Visibility: 10mi
Dew Point: 21°   Wind: 15mph
Humidity: 55%   Direction: 290°WNW
Pressure: 30.11"   Gusts: NA
Location:  39.9438°N, 77.6827°W
Report Text: KHGR 181753Z 29013KT 10SM OVC033 02/M06 A3011 RMK AO2 SLP214 T00221061 10022 20000 58012
Loading
Personal Weather Stations






























Interactive Weather Map New forecast layout! Learn more

10-Day Weather Forecast

Advertisements
Track Severe Weather on mobile